Time,TemperatureF,DewpointF,PressureIn,WindDirection,WindDirectionDegrees,WindSpeedMPH,WindSpeedGustMPH,Humidity,HourlyPrecipIn,Conditions,Clouds,dailyrainin,SoftwareType,DateUTC
2013-07-26 00:04:00,43.5,38.1,29.88,SE,135,0.0,0.0,81,0.00,CLR,OVC,0.00,WeatherDisplay:10.37,2013-07-25 14:04:00,
2013-07-26 00:09:00,43.5,38.1,29.88,SE,135,0.0,0.0,81,0.00,CLR,OVC,0.00,WeatherDisplay:10.37,2013-07-25 14:09:00,
2013-07-26 00:14:00,43.5,38.1,29.88,South,180,0.0,0.0,81,0.00,CLR,OVC,0.00,WeatherDisplay:10.37,2013-07-25 14:14:00,
2013-07-26 00:19:00,43.5,38.1,29.88,South,180,0.0,0.0,81,0.00,CLR,OVC,0.00,WeatherDisplay:10.37,2013-07-25 14:19:00,
2013-07-26 00:24:00,43.3,37.9,29.88,South,180,0.0,0.0,81,0.00,CLR,OVC,0.00,WeatherDisplay:10.37,2013-07-25 14:24:00,
2013-07-26 00:29:00,43.3,37.9,29.88,SW,225,0.0,0.0,81,0.00,CLR,OVC,0.00,WeatherDisplay:10.37,2013-07-25 14:29:00,
2013-07-26 00:34:00,43.3,37.9,29.88,SW,225,0.0,0.0,81,0.00,CLR,OVC,0.00,WeatherDisplay:10.37,2013-07-25 14:34:00,
2013-07-26 00:39:00,43.3,37.9,29.88,SW,225,0.0,0.0,81,0.00,CLR,OVC,0.00,WeatherDisplay:10.37,2013-07-25 14:39:00,
2013-07-26 00:44:00,43.3,37.9,29.85,SE,135,0.0,0.0,81,0.00,CLR,OVC,0.00,WeatherDisplay:10.37,2013-07-25 14:44:00,
2013-07-26 00:49:00,43.3,37.9,29.85,SSE,158,0.0,0.0,81,0.00,CLR,OVC,0.00,WeatherDisplay:10.37,2013-07-25 14:49:00,
2013-07-26 00:54:00,43.3,37.9,29.85,West,270,0.0,0.0,81,0.00,CLR,OVC,0.00,WeatherDisplay:10.37,2013-07-25 14:54:00,
2013-07-26 00:59:00,43.2,37.7,29.85,WSW,248,0.0,0.0,81,0.00,CLR,OVC,0.00,WeatherDisplay:10.37,2013-07-25 14:59:00,
2013-07-26 01:04:00,43.2,37.7,29.85,WSW,248,0.0,0.0,81,0.00,CLR,OVC,0.00,WeatherDisplay:10.37,2013-07-25 15:04:00,
2013-07-26 01:09:00,43.2,37.7,29.85,SSW,202,0.0,0.0,81,0.00,CLR,OVC,0.00,WeatherDisplay:10.37,2013-07-25 15:09:00,
2013-07-26 01:14:00,43.2,37.7,29.85,South,180,0.0,0.0,81,0.00,CLR,OVC,0.00,WeatherDisplay:10.37,2013-07-25 15:14:00,
2013-07-26 01:19:00,43.0,37.5,29.85,South,180,0.0,0.0,81,0.00,CLR,OVC,0.00,WeatherDisplay:10.37,2013-07-25 15:19:00,
2013-07-26 01:24:00,43.0,37.5,29.85,South,180,0.0,0.0,81,0.00,CLR,OVC,0.00,WeatherDisplay:10.37,2013-07-25 15:24:00,
2013-07-26 01:29:00,43.0,37.5,29.85,South,180,0.0,0.0,81,0.00,CLR,OVC,0.00,WeatherDisplay:10.37,2013-07-25 15:29:00,
2013-07-26 01:34:00,42.8,37.1,29.85,South,180,0.0,0.0,80,0.00,CLR,OVC,0.00,WeatherDisplay:10.37,2013-07-25 15:34:00,
2013-07-26 01:39:00,42.8,37.1,29.85,South,180,0.0,0.0,80,0.00,CLR,OVC,0.00,WeatherDisplay:10.37,2013-07-25 15:39:00,
2013-07-26 01:44:00,42.6,36.9,29.85,South,180,0.0,0.0,80,0.00,CLR,OVC,0.00,WeatherDisplay:10.37,2013-07-25 15:44:00,
2013-07-26 01:49:00,42.4,36.7,29.85,SSW,202,0.0,0.0,80,0.00,CLR,OVC,0.00,WeatherDisplay:10.37,2013-07-25 15:49:00,
2013-07-26 01:54:00,42.4,36.7,29.85,SSW,202,0.0,0.0,80,0.00,CLR,OVC,0.00,WeatherDisplay:10.37,2013-07-25 15:54:00,
2013-07-26 01:59:00,42.3,36.8,29.85,NNE,22,0.0,0.0,81,0.00,CLR,OVC,0.00,WeatherDisplay:10.37,2013-07-25 15:59:00,
2013-07-26 02:04:00,42.1,36.4,29.85,NNE,22,0.0,0.0,80,0.00,CLR,OVC,0.00,WeatherDisplay:10.37,2013-07-25 16:04:00,
2013-07-26 02:09:00,42.1,36.4,29.85,NNE,22,0.0,0.0,80,0.00,CLR,OVC,0.00,WeatherDisplay:10.37,2013-07-25 16:09:00,
2013-07-26 02:14:00,41.9,36.2,29.85,NNE,22,0.0,0.0,80,0.00,CLR,OVC,0.00,WeatherDisplay:10.37,2013-07-25 16:14:00,
2013-07-26 02:19:00,41.7,36.0,29.85,NE,45,0.0,0.0,80,0.00,CLR,OVC,0.00,WeatherDisplay:10.37,2013-07-25 16:19:00,
2013-07-26 02:24:00,41.7,36.3,29.85,NE,45,0.0,0.0,81,0.00,CLR,OVC,0.00,WeatherDisplay:10.37,2013-07-25 16:24:00,
2013-07-26 02:29:00,41.7,36.0,29.85,West,270,0.0,0.0,80,0.00,CLR,OVC,0.00,WeatherDisplay:10.37,2013-07-25 16:29:00,
2013-07-26 02:34:00,41.5,35.8,29.85,West,270,0.0,0.0,80,0.00,CLR,OVC,0.00,WeatherDisplay:10.37,2013-07-25 16:34:00,
2013-07-26 02:39:00,41.5,36.1,29.85,West,270,0.0,0.0,81,0.00,CLR,OVC,0.00,WeatherDisplay:10.37,2013-07-25 16:39:00,
2013-07-26 02:44:00,41.4,35.7,29.85,West,270,0.0,0.0,80,0.00,CLR,OVC,0.00,WeatherDisplay:10.37,2013-07-25 16:44:00,
2013-07-26 02:49:00,41.4,36.0,29.85,West,270,0.0,0.0,81,0.00,CLR,OVC,0.00,WeatherDisplay:10.37,2013-07-25 16:49:00,
2013-07-26 02:54:00,41.2,35.5,29.85,West,270,0.0,0.0,80,0.00,CLR,OVC,0.00,WeatherDisplay:10.37,2013-07-25 16:54:00,
2013-07-26 02:59:00,41.2,35.8,29.85,WNW,292,0.0,0.0,81,0.00,CLR,OVC,0.00,WeatherDisplay:10.37,2013-07-25 16:59:00,
2013-07-26 03:04:00,41.0,35.3,29.85,West,270,0.0,0.0,80,0.00,CLR,OVC,0.00,WeatherDisplay:10.37,2013-07-25 17:04:00,
2013-07-26 03:09:00,41.0,35.3,29.85,West,270,0.0,0.0,80,0.00,CLR,OVC,0.00,WeatherDisplay:10.37,2013-07-25 17:09:00,
2013-07-26 03:14:00,41.0,35.6,29.88,West,270,0.0,0.0,81,0.00,CLR,OVC,0.00,WeatherDisplay:10.37,2013-07-25 17:14:00,
2013-07-26 03:19:00,41.0,35.6,29.88,West,270,0.0,0.0,81,0.00,CLR,OVC,0.00,WeatherDisplay:10.37,2013-07-25 17:19:00,
2013-07-26 03:24:00,40.8,35.7,29.88,West,270,0.0,0.0,82,0.00,CLR,OVC,0.00,WeatherDisplay:10.37,2013-07-25 17:24:00,
2013-07-26 03:29:00,40.6,35.3,29.85,West,270,0.0,0.0,81,0.00,CLR,OVC,0.00,WeatherDisplay:10.37,2013-07-25 17:29:00,
2013-07-26 03:34:00,40.6,35.3,29.85,West,270,2.3,2.3,81,0.00,CLR,OVC,0.00,WeatherDisplay:10.37,2013-07-25 17:34:00,
2013-07-26 03:39:00,40.5,35.1,29.85,SE,135,0.0,0.0,81,0.00,CLR,OVC,0.00,WeatherDisplay:10.37,2013-07-25 17:39:00,
2013-07-26 03:44:00,40.5,34.8,29.85,West,270,0.0,0.0,80,0.00,CLR,OVC,0.00,WeatherDisplay:10.37,2013-07-25 17:44:00,
2013-07-26 03:49:00,40.3,34.9,29.85,West,270,0.0,0.0,81,0.00,CLR,OVC,0.00,WeatherDisplay:10.37,2013-07-25 17:49:00,
2013-07-26 03:54:00,40.5,35.1,29.85,West,270,0.0,0.0,81,0.00,CLR,OVC,0.00,WeatherDisplay:10.37,2013-07-25 17:54:00,
2013-07-26 03:59:00,40.5,35.4,29.85,West,270,0.0,0.0,82,0.00,CLR,OVC,0.00,WeatherDisplay:10.37,2013-07-25 17:59:00,
2013-07-26 04:04:00,40.5,35.4,29.85,West,270,0.0,0.0,82,0.00,CLR,OVC,0.00,WeatherDisplay:10.37,2013-07-25 18:04:00,
2013-07-26 04:10:00,40.5,35.4,29.85,West,270,0.0,0.0,82,0.00,CLR,OVC,0.00,WeatherDisplay:10.37,2013-07-25 18:10:00,
2013-07-26 04:15:00,40.5,35.4,29.88,West,270,0.0,0.0,82,0.00,CLR,OVC,0.00,WeatherDisplay:10.37,2013-07-25 18:15:00,
2013-07-26 04:20:00,40.5,35.4,29.88,SE,135,0.0,0.0,82,0.00,CLR,OVC,0.00,WeatherDisplay:10.37,2013-07-25 18:20:00,
2013-07-26 04:25:00,40.3,35.2,29.88,West,270,0.0,0.0,82,0.00,CLR,OVC,0.00,WeatherDisplay:10.37,2013-07-25 18:25:00,
2013-07-26 04:30:00,40.3,34.9,29.85,West,270,0.0,0.0,81,0.00,CLR,OVC,0.00,WeatherDisplay:10.37,2013-07-25 18:30:00,
2013-07-26 04:35:00,40.3,35.2,29.85,West,270,0.0,0.0,82,0.00,CLR,OVC,0.00,WeatherDisplay:10.37,2013-07-25 18:35:00,
2013-07-26 04:40:00,40.3,35.2,29.85,WNW,292,0.0,0.0,82,0.00,CLR,OVC,0.00,WeatherDisplay:10.37,2013-07-25 18:40:00,
2013-07-26 04:45:00,40.3,35.2,29.85,West,270,0.0,0.0,82,0.00,CLR,OVC,0.00,WeatherDisplay:10.37,2013-07-25 18:45:00,
2013-07-26 04:50:00,40.3,35.2,29.85,West,270,0.0,0.0,82,0.00,CLR,OVC,0.00,WeatherDisplay:10.37,2013-07-25 18:50:00,
2013-07-26 04:55:00,40.3,35.2,29.85,West,270,0.0,0.0,82,0.00,CLR,OVC,0.00,WeatherDisplay:10.37,2013-07-25 18:55:00,
2013-07-26 05:00:00,40.1,35.0,29.85,West,270,0.0,0.0,82,0.00,CLR,OVC,0.00,WeatherDisplay:10.37,2013-07-25 19:00:00,
2013-07-26 05:05:00,40.1,35.0,29.85,West,270,0.0,0.0,82,0.00,CLR,OVC,0.00,WeatherDisplay:10.37,2013-07-25 19:05:00,
2013-07-26 05:10:00,40.1,35.0,29.85,West,270,0.0,0.0,82,0.00,CLR,OVC,0.00,WeatherDisplay:10.37,2013-07-25 19:10:00,
2013-07-26 05:15:00,40.1,35.0,29.85,West,270,0.0,0.0,82,0.00,CLR,OVC,0.00,WeatherDisplay:10.37,2013-07-25 19:15:00,
2013-07-26 05:20:00,39.9,34.9,29.85,ENE,68,0.0,0.0,82,0.00,CLR,OVC,0.00,WeatherDisplay:10.37,2013-07-25 19:20:00,
2013-07-26 05:25:00,39.9,35.2,29.85,West,270,0.0,0.0,83,0.00,CLR,OVC,0.00,WeatherDisplay:10.37,2013-07-25 19:25:00,
2013-07-26 05:30:00,39.9,34.9,29.85,West,270,0.0,0.0,82,0.00,CLR,OVC,0.00,WeatherDisplay:10.37,2013-07-25 19:30:00,
2013-07-26 05:35:00,39.7,34.7,29.85,West,270,0.0,0.0,82,0.00,CLR,OVC,0.00,WeatherDisplay:10.37,2013-07-25 19:35:00,
2013-07-26 05:40:00,39.7,34.7,29.85,West,270,0.0,0.0,82,0.00,CLR,OVC,0.00,WeatherDisplay:10.37,2013-07-25 19:40:00,
2013-07-26 05:45:00,39.7,34.7,29.85,SW,225,0.0,0.0,82,0.00,CLR,OVC,0.00,WeatherDisplay:10.37,2013-07-25 19:45:00,
2013-07-26 05:50:00,39.7,34.7,29.85,ESE,112,0.0,0.0,82,0.00,CLR,OVC,0.00,WeatherDisplay:10.37,2013-07-25 19:50:00,
2013-07-26 05:55:00,39.7,35.0,29.85,ENE,68,0.0,0.0,83,0.00,CLR,OVC,0.00,WeatherDisplay:10.37,2013-07-25 19:55:00,
2013-07-26 06:00:00,39.6,34.5,29.85,WNW,292,0.0,0.0,82,0.00,CLR,OVC,0.00,WeatherDisplay:10.37,2013-07-25 20:00:00,
2013-07-26 06:05:00,39.4,34.3,29.85,WSW,248,0.0,0.0,82,0.00,CLR,OVC,0.00,WeatherDisplay:10.37,2013-07-25 20:05:00,
2013-07-26 06:10:00,39.4,34.3,29.85,WSW,248,0.0,0.0,82,0.00,CLR,OVC,0.00,WeatherDisplay:10.37,2013-07-25 20:10:00,
2013-07-26 06:15:00,39.4,34.3,29.85,WSW,248,0.0,0.0,82,0.00,CLR,OVC,0.00,WeatherDisplay:10.37,2013-07-25 20:15:00,
2013-07-26 06:20:00,39.4,34.3,29.85,West,270,0.0,0.0,82,0.00,CLR,OVC,0.00,WeatherDisplay:10.37,2013-07-25 20:20:00,
2013-07-26 06:25:00,39.4,34.3,29.85,WNW,292,0.0,0.0,82,0.00,CLR,OVC,0.00,WeatherDisplay:10.37,2013-07-25 20:25:00,
2013-07-26 06:30:00,39.4,34.6,29.85,WNW,292,0.0,0.0,83,0.00,CLR,OVC,0.00,WeatherDisplay:10.37,2013-07-25 20:30:00,
2013-07-26 06:35:00,39.4,34.6,29.85,WNW,292,0.0,0.0,83,0.00,CLR,OVC,0.00,WeatherDisplay:10.37,2013-07-25 20:35:00,
2013-07-26 06:40:00,39.4,34.6,29.85,WSW,248,0.0,0.0,83,0.00,CLR,OVC,0.00,WeatherDisplay:10.37,2013-07-25 20:40:00,
2013-07-26 06:45:00,39.4,34.6,29.85,South,184,0.0,0.0,83,0.00,CLR,OVC,0.00,WeatherDisplay:10.37,2013-07-25 20:45:00,
2013-07-26 06:50:00,39.4,34.6,29.85,ESE,112,0.0,0.0,83,0.00,CLR,OVC,0.00,WeatherDisplay:10.37,2013-07-25 20:50:00,
2013-07-26 06:55:00,39.4,34.9,29.85,ESE,112,0.0,0.0,84,0.00,CLR,OVC,0.00,WeatherDisplay:10.37,2013-07-25 20:55:00,
2013-07-26 07:00:00,39.2,34.5,29.85,SSW,202,0.0,0.0,83,0.00,CLR,OVC,0.00,WeatherDisplay:10.37,2013-07-25 21:00:00,
2013-07-26 07:05:00,39.2,34.5,29.85,WSW,248,0.0,0.0,83,0.00,CLR,OVC,0.00,WeatherDisplay:10.37,2013-07-25 21:05:00,
2013-07-26 07:10:00,39.2,34.5,29.85,WSW,248,0.0,0.0,83,0.00,CLR,OVC,0.00,WeatherDisplay:10.37,2013-07-25 21:10:00,
2013-07-26 07:15:00,39.4,34.6,29.85,WSW,258,0.0,0.0,83,0.00,CLR,OVC,0.00,WeatherDisplay:10.37,2013-07-25 21:15:00,
2013-07-26 07:20:00,39.4,34.6,29.85,WNW,292,0.0,0.0,83,0.00,CLR,OVC,0.00,WeatherDisplay:10.37,2013-07-25 21:20:00,
2013-07-26 07:25:00,39.6,35.1,29.85,WNW,292,0.0,0.0,84,0.00,CLR,OVC,0.00,WeatherDisplay:10.37,2013-07-25 21:25:00,
2013-07-26 07:30:00,39.6,35.1,29.88,WNW,292,0.0,0.0,84,0.00,CLR,OVC,0.00,WeatherDisplay:10.37,2013-07-25 21:30:00,
2013-07-26 07:35:00,39.7,35.3,29.88,WNW,292,0.0,0.0,84,0.00,CLR,OVC,0.00,WeatherDisplay:10.37,2013-07-25 21:35:00,
2013-07-26 07:40:00,39.7,35.3,29.88,SE,135,0.0,0.0,84,0.00,CLR,OVC,0.00,WeatherDisplay:10.37,2013-07-25 21:40:00,
2013-07-26 07:45:00,39.9,35.8,29.88,SE,138,0.0,0.0,85,0.00,CLR,OVC,0.00,WeatherDisplay:10.37,2013-07-25 21:45:00,
2013-07-26 07:50:00,40.1,36.0,29.88,ENE,68,0.0,0.0,85,0.00,CLR,OVC,0.00,WeatherDisplay:10.37,2013-07-25 21:50:00,
2013-07-26 07:55:00,40.3,36.1,29.88,ENE,68,0.0,0.0,85,0.00,CLR,OVC,0.00,WeatherDisplay:10.37,2013-07-25 21:55:00,
2013-07-26 08:00:00,40.3,36.1,29.88,ENE,68,0.0,0.0,85,0.00,CLR,OVC,0.00,WeatherDisplay:10.37,2013-07-25 22:00:00,
2013-07-26 08:05:00,40.5,36.3,29.88,ENE,68,0.0,0.0,85,0.00,CLR,OVC,0.00,WeatherDisplay:10.37,2013-07-25 22:05:00,
2013-07-26 08:10:00,40.5,36.3,29.88,ENE,68,0.0,0.0,85,0.00,CLR,OVC,0.00,WeatherDisplay:10.37,2013-07-25 22:10:00,
2013-07-26 08:15:00,40.6,36.5,29.88,ENE,68,0.0,0.0,85,0.00,CLR,OVC,0.00,WeatherDisplay:10.37,2013-07-25 22:15:00,
2013-07-26 08:20:00,40.6,36.5,29.88,ENE,68,0.0,0.0,85,0.00,CLR,OVC,0.00,WeatherDisplay:10.37,2013-07-25 22:20:00,
2013-07-26 08:25:00,41.0,36.8,29.88,NW,315,0.0,0.0,85,0.00,CLR,OVC,0.00,WeatherDisplay:10.37,2013-07-25 22:25:00,
2013-07-26 08:30:00,41.2,37.0,29.88,WNW,292,0.0,0.0,85,0.00,CLR,OVC,0.00,WeatherDisplay:10.37,2013-07-25 22:30:00,
2013-07-26 08:35:00,41.4,37.2,29.88,NE,45,0.0,0.0,85,0.00,CLR,OVC,0.00,WeatherDisplay:10.37,2013-07-25 22:35:00,
2013-07-26 08:40:00,41.7,37.5,29.88,NNE,22,0.0,0.0,85,0.00,CLR,OVC,0.00,WeatherDisplay:10.37,2013-07-25 22:40:00,
2013-07-26 08:45:00,42.1,37.9,29.88,NNE,22,0.0,0.0,85,0.00,CLR,OVC,0.00,WeatherDisplay:10.37,2013-07-25 22:45:00,
2013-07-26 08:50:00,42.4,38.5,29.88,NE,45,0.0,0.0,86,0.00,CLR,OVC,0.00,WeatherDisplay:10.37,2013-07-25 22:50:00,
2013-07-26 08:55:00,43.0,39.1,29.88,WNW,292,0.0,0.0,86,0.00,CLR,OVC,0.00,WeatherDisplay:10.37,2013-07-25 22:55:00,
2013-07-26 09:00:00,43.9,40.0,29.85,WNW,292,0.0,0.0,86,0.00,CLR,OVC,0.00,WeatherDisplay:10.37,2013-07-25 23:00:00,
2013-07-26 09:05:00,44.6,40.7,29.85,WNW,292,0.0,0.0,86,0.00,CLR,OVC,0.00,WeatherDisplay:10.37,2013-07-25 23:05:00,
2013-07-26 09:10:00,45.1,41.2,29.85,West,270,2.3,2.3,86,0.00,CLR,OVC,0.00,WeatherDisplay:10.37,2013-07-25 23:10:00,
2013-07-26 09:15:00,46.0,42.1,29.85,NNW,338,0.0,0.0,86,0.00,CLR,OVC,0.00,WeatherDisplay:10.37,2013-07-25 23:15:00,
2013-07-26 09:20:00,46.4,42.1,29.85,WNW,292,0.0,0.0,85,0.00,CLR,OVC,0.00,WeatherDisplay:10.37,2013-07-25 23:20:00,
2013-07-26 09:25:00,46.9,42.7,29.85,West,270,0.0,0.0,85,0.00,CLR,OVC,0.00,WeatherDisplay:10.37,2013-07-25 23:25:00,
2013-07-26 09:30:00,47.1,42.5,29.85,NNW,338,0.0,0.0,84,0.00,CLR,OVC,0.00,WeatherDisplay:10.37,2013-07-25 23:30:00,
2013-07-26 09:35:00,47.7,43.1,29.85,NNW,338,0.0,0.0,84,0.00,CLR,OVC,0.00,WeatherDisplay:10.37,2013-07-25 23:35:00,
2013-07-26 09:40:00,48.2,43.3,29.85,WNW,292,2.3,2.3,83,0.00,CLR,OVC,0.00,WeatherDisplay:10.37,2013-07-25 23:40:00,
2013-07-26 09:45:00,48.6,43.6,29.85,North,0,0.0,0.0,83,0.00,CLR,OVC,0.00,WeatherDisplay:10.37,2013-07-25 23:45:00,
2013-07-26 09:50:00,49.3,44.3,29.85,NW,315,0.0,0.0,83,0.00,CLR,OVC,0.00,WeatherDisplay:10.37,2013-07-25 23:50:00,
2013-07-26 09:55:00,50.0,45.0,29.85,NNW,338,0.0,0.0,83,0.00,CLR,OVC,0.00,WeatherDisplay:10.37,2013-07-25 23:55:00,
2013-07-26 10:00:00,50.7,45.7,29.85,NNW,338,0.0,0.0,83,0.00,CLR,OVC,0.00,WeatherDisplay:10.37,2013-07-26 00:00:00,
2013-07-26 10:05:00,51.6,46.3,29.85,NW,315,0.0,0.0,82,0.00,CLR,OVC,0.00,WeatherDisplay:10.37,2013-07-26 00:05:00,
2013-07-26 10:10:00,52.0,46.3,29.85,NNE,22,0.0,0.0,81,0.00,CLR,OVC,0.00,WeatherDisplay:10.37,2013-07-26 00:10:00,
2013-07-26 10:15:00,52.5,46.9,29.85,WNW,292,2.3,2.3,81,0.00,CLR,OVC,0.00,WeatherDisplay:10.37,2013-07-26 00:15:00,
2013-07-26 10:20:00,52.7,46.7,29.85,NNW,338,0.0,0.0,80,0.00,CLR,OVC,0.00,WeatherDisplay:10.37,2013-07-26 00:20:00,
2013-07-26 10:25:00,52.5,46.2,29.85,West,270,2.2,0.0,79,0.00,CLR,OVC,0.00,WeatherDisplay:10.37,2013-07-26 00:25:00,
2013-07-26 10:30:00,52.5,46.2,29.85,NE,45,0.0,0.0,79,0.00,CLR,OVC,0.00,WeatherDisplay:10.37,2013-07-26 00:30:00,
2013-07-26 10:35:00,53.1,46.7,29.85,WNW,292,3.5,3.5,79,0.00,CLR,OVC,0.00,WeatherDisplay:10.37,2013-07-26 00:35:00,
2013-07-26 10:40:00,53.4,46.7,29.85,NNE,22,1.2,0.0,78,0.00,CLR,OVC,0.00,WeatherDisplay:10.37,2013-07-26 00:40:00,
2013-07-26 10:45:00,54.0,47.3,29.85,East,90,0.0,0.0,78,0.00,CLR,OVC,0.00,WeatherDisplay:10.37,2013-07-26 00:45:00,
2013-07-26 10:50:00,54.5,47.8,29.85,West,270,2.3,2.3,78,0.00,CLR,OVC,0.00,WeatherDisplay:10.37,2013-07-26 00:50:00,
2013-07-26 10:55:00,54.7,48.0,29.85,WNW,292,1.2,0.0,78,0.00,CLR,OVC,0.00,WeatherDisplay:10.37,2013-07-26 00:55:00,
2013-07-26 11:00:00,55.2,48.5,29.83,NNW,338,0.0,0.0,78,0.00,CLR,OVC,0.00,WeatherDisplay:10.37,2013-07-26 01:00:00,
2013-07-26 11:06:00,55.9,48.5,29.83,NNW,338,0.0,0.0,76,0.00,CLR,OVC,0.00,WeatherDisplay:10.37,2013-07-26 01:06:00,
2013-07-26 11:11:00,56.5,47.6,29.83,WNW,292,2.4,0.0,72,0.00,CLR,OVC,0.00,WeatherDisplay:10.37,2013-07-26 01:11:00,
2013-07-26 11:16:00,56.5,46.4,29.83,NNW,338,2.3,2.3,69,0.00,CLR,OVC,0.00,WeatherDisplay:10.37,2013-07-26 01:16:00,
2013-07-26 11:22:00,56.8,47.2,29.83,WNW,292,3.6,0.0,70,0.00,CLR,OVC,0.00,WeatherDisplay:10.37,2013-07-26 01:22:00,
2013-07-26 11:27:00,57.0,46.6,29.83,NNW,338,1.2,0.0,68,0.00,CLR,OVC,0.00,WeatherDisplay:10.37,2013-07-26 01:27:00,
2013-07-26 11:32:00,57.2,46.3,29.83,NNE,22,5.8,5.8,67,0.00,CLR,OVC,0.00,WeatherDisplay:10.37,2013-07-26 01:32:00,
2013-07-26 11:37:00,57.7,46.0,29.83,WNW,292,3.5,3.5,65,0.00,CLR,OVC,0.00,WeatherDisplay:10.37,2013-07-26 01:37:00,
2013-07-26 11:42:00,58.1,46.4,29.83,NW,315,3.5,3.5,65,0.00,CLR,OVC,0.00,WeatherDisplay:10.37,2013-07-26 01:42:00,
2013-07-26 11:47:00,58.3,45.7,29.83,WNW,292,5.8,5.8,63,0.00,CLR,OVC,0.00,WeatherDisplay:10.37,2013-07-26 01:47:00,
2013-07-26 11:52:00,58.5,45.1,29.83,WNW,292,6.9,6.9,61,0.00,CLR,OVC,0.00,WeatherDisplay:10.37,2013-07-26 01:52:00,
2013-07-26 11:57:00,58.5,44.2,29.83,NNE,22,10.4,10.4,59,0.00,CLR,OVC,0.00,WeatherDisplay:10.37,2013-07-26 01:57:00,
2013-07-26 12:02:00,59.0,44.7,29.80,WNW,292,5.8,6.2,59,0.00,CLR,OVC,0.00,WeatherDisplay:10.37,2013-07-26 02:02:00,
2013-07-26 12:07:00,59.2,44.4,29.80,NW,315,5.8,5.8,58,0.00,CLR,OVC,0.00,WeatherDisplay:10.37,2013-07-26 02:07:00,
2013-07-26 12:12:00,59.4,44.6,29.80,WNW,292,3.8,3.8,58,0.00,CLR,OVC,0.00,WeatherDisplay:10.37,2013-07-26 02:12:00,
2013-07-26 12:17:00,59.7,44.9,29.80,WNW,292,2.4,2.4,58,0.00,CLR,OVC,0.00,WeatherDisplay:10.37,2013-07-26 02:17:00,
2013-07-26 12:22:00,59.7,44.5,29.80,NNE,22,2.3,2.3,57,0.00,CLR,OVC,0.00,WeatherDisplay:10.37,2013-07-26 02:22:00,
2013-07-26 12:27:00,60.3,45.4,29.80,NE,45,3.3,3.3,58,0.00,CLR,OVC,0.00,WeatherDisplay:10.37,2013-07-26 02:27:00,
2013-07-26 12:32:00,60.6,44.8,29.80,NNW,338,2.3,2.3,56,0.00,CLR,OVC,0.00,WeatherDisplay:10.37,2013-07-26 02:32:00,
2013-07-26 12:37:00,61.0,44.7,29.80,NNW,338,3.5,3.5,55,0.00,CLR,OVC,0.00,WeatherDisplay:10.37,2013-07-26 02:37:00,
2013-07-26 12:42:00,61.3,44.5,29.80,NNW,338,2.4,2.4,54,0.00,CLR,OVC,0.00,WeatherDisplay:10.37,2013-07-26 02:42:00,
2013-07-26 12:47:00,61.3,43.6,29.80,North,0,4.6,4.6,52,0.00,CLR,OVC,0.00,WeatherDisplay:10.37,2013-07-26 02:47:00,
2013-07-26 12:52:00,61.0,43.2,29.80,North,0,3.5,3.5,52,0.00,CLR,OVC,0.00,WeatherDisplay:10.37,2013-07-26 02:52:00,
2013-07-26 12:57:00,61.3,44.1,29.80,NNE,22,4.6,4.6,53,0.00,CLR,OVC,0.00,WeatherDisplay:10.37,2013-07-26 02:57:00,
2013-07-26 13:02:00,62.1,43.7,29.77,North,0,3.6,3.6,51,0.00,CLR,OVC,0.00,WeatherDisplay:10.37,2013-07-26 03:02:00,
2013-07-26 13:07:00,62.6,44.2,29.77,WNW,292,3.5,3.5,51,0.00,CLR,OVC,0.00,WeatherDisplay:10.37,2013-07-26 03:07:00,
2013-07-26 13:12:00,63.0,44.5,29.77,NNW,338,2.3,2.3,51,0.00,CLR,OVC,0.00,WeatherDisplay:10.37,2013-07-26 03:12:00,
2013-07-26 13:17:00,63.0,44.0,29.77,NNE,22,2.3,2.4,50,0.00,CLR,OVC,0.00,WeatherDisplay:10.37,2013-07-26 03:17:00,
2013-07-26 13:22:00,63.0,43.5,29.77,NNW,338,3.5,3.5,49,0.00,CLR,OVC,0.00,WeatherDisplay:10.37,2013-07-26 03:22:00,
2013-07-26 13:27:00,63.1,43.7,29.77,NNW,338,2.3,2.3,49,0.00,CLR,OVC,0.00,WeatherDisplay:10.37,2013-07-26 03:27:00,
2013-07-26 13:32:00,63.3,43.8,29.74,NNW,338,2.3,2.3,49,0.00,CLR,OVC,0.00,WeatherDisplay:10.37,2013-07-26 03:32:00,
2013-07-26 13:37:00,63.5,43.4,29.74,NNW,338,3.5,3.5,48,0.00,CLR,OVC,0.00,WeatherDisplay:10.37,2013-07-26 03:37:00,
2013-07-26 13:42:00,63.7,43.1,29.74,NNE,22,3.5,3.5,47,0.00,CLR,OVC,0.00,WeatherDisplay:10.37,2013-07-26 03:42:00,
2013-07-26 13:47:00,63.9,43.2,29.74,NW,315,2.2,2.2,47,0.00,CLR,OVC,0.00,WeatherDisplay:10.37,2013-07-26 03:47:00,
2013-07-26 13:52:00,64.4,44.3,29.74,NNE,22,2.3,2.3,48,0.00,CLR,OVC,0.00,WeatherDisplay:10.37,2013-07-26 03:52:00,
2013-07-26 13:57:00,65.1,44.4,29.74,NNW,338,4.7,4.7,47,0.00,CLR,OVC,0.00,WeatherDisplay:10.37,2013-07-26 03:57:00,
2013-07-26 14:01:00,65.5,44.1,29.74,NNE,22,4.6,4.6,46,0.00,CLR,OVC,0.00,WeatherDisplay:10.37,2013-07-26 04:01:00,
2013-07-26 14:02:00,65.7,44.3,29.74,West,270,4.6,4.6,46,0.00,CLR,OVC,0.00,WeatherDisplay:10.37,2013-07-26 04:02:00,
2013-07-26 14:07:00,65.7,43.7,29.74,NNW,338,2.9,2.9,45,0.00,CLR,OVC,0.00,WeatherDisplay:10.37,2013-07-26 04:07:00,
2013-07-26 14:12:00,65.7,44.3,29.74,NNE,22,2.3,2.3,46,0.00,CLR,OVC,0.00,WeatherDisplay:10.37,2013-07-26 04:12:00,
2013-07-26 14:17:00,65.5,43.6,29.74,NNE,22,2.3,2.3,45,0.00,CLR,OVC,0.00,WeatherDisplay:10.37,2013-07-26 04:17:00,
2013-07-26 14:22:00,65.5,43.0,29.74,North,0,2.3,2.3,44,0.00,CLR,OVC,0.00,WeatherDisplay:10.37,2013-07-26 04:22:00,
2013-07-26 14:27:00,65.3,43.4,29.74,NNW,338,2.4,2.4,45,0.00,CLR,OVC,0.00,WeatherDisplay:10.37,2013-07-26 04:27:00,
2013-07-26 14:32:00,65.5,43.0,29.71,North,0,2.2,2.2,44,0.00,CLR,OVC,0.00,WeatherDisplay:10.37,2013-07-26 04:32:00,
2013-07-26 14:37:00,65.3,42.8,29.71,NNE,22,2.3,2.3,44,0.00,CLR,OVC,0.00,WeatherDisplay:10.37,2013-07-26 04:37:00,
2013-07-26 14:42:00,65.1,42.7,29.71,North,0,4.6,4.6,44,0.00,CLR,OVC,0.00,WeatherDisplay:10.37,2013-07-26 04:42:00,
2013-07-26 14:47:00,64.9,42.5,29.74,NW,315,3.5,3.5,44,0.00,CLR,OVC,0.00,WeatherDisplay:10.37,2013-07-26 04:47:00,
2013-07-26 14:52:00,64.8,42.3,29.74,NNW,338,3.5,3.5,44,0.00,CLR,OVC,0.00,WeatherDisplay:10.37,2013-07-26 04:52:00,
2013-07-26 14:57:00,64.8,41.7,29.74,NNW,338,4.0,4.0,43,0.00,CLR,OVC,0.00,WeatherDisplay:10.37,2013-07-26 04:57:00,
2013-07-26 15:02:00,64.4,42.0,29.71,West,270,4.9,4.9,44,0.00,CLR,OVC,0.00,WeatherDisplay:10.37,2013-07-26 05:02:00,
2013-07-26 15:07:00,64.2,41.8,29.71,NW,315,2.6,2.6,44,0.00,CLR,OVC,0.00,WeatherDisplay:10.37,2013-07-26 05:07:00,
2013-07-26 15:12:00,64.2,41.8,29.71,WNW,292,2.3,2.3,44,0.00,CLR,OVC,0.00,WeatherDisplay:10.37,2013-07-26 05:12:00,
2013-07-26 15:17:00,64.0,42.3,29.74,North,0,2.3,0.0,45,0.00,CLR,OVC,0.00,WeatherDisplay:10.37,2013-07-26 05:17:00,
2013-07-26 15:22:00,63.9,42.1,29.74,NW,315,3.5,3.5,45,0.00,CLR,OVC,0.00,WeatherDisplay:10.37,2013-07-26 05:22:00,
2013-07-26 15:27:00,63.5,42.3,29.74,NNE,22,0.0,0.0,46,0.00,CLR,OVC,0.00,WeatherDisplay:10.37,2013-07-26 05:27:00,
2013-07-26 15:32:00,63.0,41.8,29.74,NNW,338,0.0,0.0,46,0.00,CLR,OVC,0.00,WeatherDisplay:10.37,2013-07-26 05:32:00,
2013-07-26 15:37:00,62.6,42.1,29.74,WNW,292,2.3,2.3,47,0.00,CLR,OVC,0.00,WeatherDisplay:10.37,2013-07-26 05:37:00,
2013-07-26 15:42:00,62.2,41.7,29.74,NE,45,0.0,0.0,47,0.00,CLR,OVC,0.00,WeatherDisplay:10.37,2013-07-26 05:42:00,
2013-07-26 15:47:00,61.9,42.0,29.71,SE,135,0.0,0.0,48,0.00,CLR,OVC,0.00,WeatherDisplay:10.37,2013-07-26 05:47:00,
2013-07-26 15:52:00,61.5,41.6,29.71,WNW,292,0.0,0.0,48,0.00,CLR,OVC,0.00,WeatherDisplay:10.37,2013-07-26 05:52:00,
2013-07-26 15:57:00,61.3,42.0,29.71,SSE,158,0.0,0.0,49,0.00,CLR,OVC,0.00,WeatherDisplay:10.37,2013-07-26 05:57:00,
2013-07-26 16:02:00,61.0,41.7,29.71,SE,135,0.0,0.0,49,0.00,CLR,OVC,0.00,WeatherDisplay:10.37,2013-07-26 06:02:00,
2013-07-26 16:07:00,60.6,41.9,29.71,NW,315,0.0,0.0,50,0.00,CLR,OVC,0.00,WeatherDisplay:10.37,2013-07-26 06:07:00,
2013-07-26 16:12:00,60.4,43.2,29.71,WNW,292,0.0,0.0,53,0.00,CLR,OVC,0.00,WeatherDisplay:10.37,2013-07-26 06:12:00,
2013-07-26 16:17:00,60.3,42.6,29.74,NNE,22,1.2,1.6,52,0.00,CLR,OVC,0.00,WeatherDisplay:10.37,2013-07-26 06:17:00,
2013-07-26 16:22:00,59.9,42.7,29.74,South,180,0.0,0.0,53,0.00,CLR,OVC,0.00,WeatherDisplay:10.37,2013-07-26 06:22:00,
2013-07-26 16:27:00,59.5,42.4,29.74,SSE,158,0.0,0.0,53,0.00,CLR,OVC,0.00,WeatherDisplay:10.37,2013-07-26 06:27:00,
2013-07-26 16:32:00,59.2,42.0,29.74,SSE,158,0.0,0.0,53,0.00,CLR,OVC,0.00,WeatherDisplay:10.37,2013-07-26 06:32:00,
2013-07-26 16:37:00,59.0,42.4,29.74,WSW,248,0.0,0.0,54,0.00,CLR,OVC,0.00,WeatherDisplay:10.37,2013-07-26 06:37:00,
2013-07-26 16:42:00,58.6,42.5,29.74,SSW,202,1.2,1.2,55,0.00,CLR,OVC,0.00,WeatherDisplay:10.37,2013-07-26 06:42:00,
2013-07-26 16:47:00,58.1,42.5,29.77,NNW,338,0.0,0.0,56,0.00,CLR,OVC,0.00,WeatherDisplay:10.37,2013-07-26 06:47:00,
2013-07-26 16:52:00,57.7,42.6,29.77,NNW,338,0.0,0.0,57,0.00,CLR,OVC,0.00,WeatherDisplay:10.37,2013-07-26 06:52:00,
2013-07-26 16:57:00,57.4,42.7,29.77,NNE,22,0.0,0.0,58,0.00,CLR,OVC,0.00,WeatherDisplay:10.37,2013-07-26 06:57:00,
2013-07-26 17:02:00,56.8,42.7,29.77,SE,135,0.0,0.0,59,0.00,CLR,OVC,0.00,WeatherDisplay:10.37,2013-07-26 07:02:00,
2013-07-26 17:07:00,56.3,42.6,29.77,WNW,292,0.0,0.0,60,0.00,CLR,OVC,0.00,WeatherDisplay:10.37,2013-07-26 07:07:00,
2013-07-26 17:12:00,55.9,42.2,29.77,NNW,338,0.0,0.0,60,0.00,CLR,OVC,0.00,WeatherDisplay:10.37,2013-07-26 07:12:00,
2013-07-26 17:17:00,55.6,41.9,29.77,NW,315,0.0,0.0,60,0.00,CLR,OVC,0.00,WeatherDisplay:10.37,2013-07-26 07:17:00,
2013-07-26 17:22:00,55.0,42.3,29.77,NNW,338,0.0,0.0,62,0.00,CLR,OVC,0.00,WeatherDisplay:10.37,2013-07-26 07:22:00,
2013-07-26 17:27:00,54.7,41.9,29.77,SSW,202,0.0,0.0,62,0.00,CLR,OVC,0.00,WeatherDisplay:10.37,2013-07-26 07:27:00,
2013-07-26 17:32:00,54.1,41.4,29.77,WNW,292,0.0,0.0,62,0.00,CLR,OVC,0.00,WeatherDisplay:10.37,2013-07-26 07:32:00,
2013-07-26 17:37:00,53.8,41.1,29.77,WSW,248,1.4,1.4,62,0.00,CLR,OVC,0.00,WeatherDisplay:10.37,2013-07-26 07:37:00,
2013-07-26 17:42:00,53.6,41.3,29.77,NW,315,2.3,2.3,63,0.00,CLR,OVC,0.00,WeatherDisplay:10.37,2013-07-26 07:42:00,
2013-07-26 17:47:00,53.1,41.2,29.80,SW,225,0.0,0.0,64,0.00,CLR,OVC,0.00,WeatherDisplay:10.37,2013-07-26 07:47:00,
2013-07-26 17:52:00,52.9,41.4,29.80,WSW,248,0.0,0.0,65,0.00,CLR,OVC,0.00,WeatherDisplay:10.37,2013-07-26 07:52:00,
2013-07-26 17:57:00,52.7,41.7,29.80,NNW,338,0.0,0.0,66,0.00,CLR,OVC,0.00,WeatherDisplay:10.37,2013-07-26 07:57:00,
2013-07-26 18:02:00,52.3,40.9,29.80,NW,315,0.0,0.0,65,0.00,CLR,OVC,0.00,WeatherDisplay:10.37,2013-07-26 08:02:00,
2013-07-26 18:07:00,52.0,41.0,29.80,WNW,292,0.0,0.0,66,0.00,CLR,OVC,0.00,WeatherDisplay:10.37,2013-07-26 08:07:00,
2013-07-26 18:12:00,51.8,40.8,29.80,West,270,0.0,0.0,66,0.00,CLR,OVC,0.00,WeatherDisplay:10.37,2013-07-26 08:12:00,
2013-07-26 18:17:00,51.4,40.8,29.80,West,270,0.0,0.0,67,0.00,CLR,OVC,0.00,WeatherDisplay:10.37,2013-07-26 08:17:00,
2013-07-26 18:22:00,51.1,40.5,29.80,WNW,292,0.0,0.0,67,0.00,CLR,OVC,0.00,WeatherDisplay:10.37,2013-07-26 08:22:00,
2013-07-26 18:27:00,50.9,40.3,29.80,West,270,0.0,0.0,67,0.00,CLR,OVC,0.00,WeatherDisplay:10.37,2013-07-26 08:27:00,
2013-07-26 18:32:00,50.7,40.2,29.80,WSW,248,0.0,0.0,67,0.00,CLR,OVC,0.00,WeatherDisplay:10.37,2013-07-26 08:32:00,
2013-07-26 18:37:00,50.5,40.4,29.80,West,270,0.0,0.0,68,0.00,CLR,OVC,0.00,WeatherDisplay:10.37,2013-07-26 08:37:00,
2013-07-26 18:42:00,50.4,40.6,29.80,West,270,0.0,0.0,69,0.00,CLR,OVC,0.00,WeatherDisplay:10.37,2013-07-26 08:42:00,
2013-07-26 18:47:00,50.2,40.4,29.80,WSW,248,0.0,0.0,69,0.00,CLR,OVC,0.00,WeatherDisplay:10.37,2013-07-26 08:47:00,
2013-07-26 18:52:00,50.0,40.2,29.80,NNW,338,0.0,0.0,69,0.00,CLR,OVC,0.00,WeatherDisplay:10.37,2013-07-26 08:52:00,
2013-07-26 18:57:00,49.8,40.4,29.80,NW,315,0.0,0.0,70,0.00,CLR,OVC,0.00,WeatherDisplay:10.37,2013-07-26 08:57:00,
2013-07-26 19:02:00,49.6,40.3,29.80,SW,225,0.0,0.0,70,0.00,CLR,OVC,0.00,WeatherDisplay:10.37,2013-07-26 09:02:00,
2013-07-26 19:07:00,49.3,39.9,29.80,West,270,0.0,0.0,70,0.00,CLR,OVC,0.00,WeatherDisplay:10.37,2013-07-26 09:07:00,
2013-07-26 19:12:00,49.3,39.9,29.80,West,270,0.0,0.0,70,0.00,CLR,OVC,0.00,WeatherDisplay:10.37,2013-07-26 09:12:00,
2013-07-26 19:17:00,49.1,40.1,29.80,WNW,292,0.0,0.0,71,0.00,CLR,OVC,0.00,WeatherDisplay:10.37,2013-07-26 09:17:00,
2013-07-26 19:22:00,48.9,39.9,29.80,West,270,0.0,0.0,71,0.00,CLR,OVC,0.00,WeatherDisplay:10.37,2013-07-26 09:22:00,
2013-07-26 19:27:00,48.7,39.8,29.80,SSW,202,0.0,0.0,71,0.00,CLR,OVC,0.00,WeatherDisplay:10.37,2013-07-26 09:27:00,
2013-07-26 19:32:00,48.7,39.8,29.80,WNW,292,0.0,0.0,71,0.00,CLR,OVC,0.00,WeatherDisplay:10.37,2013-07-26 09:32:00,
2013-07-26 19:37:00,48.7,40.1,29.80,SSE,158,0.0,0.0,72,0.00,CLR,OVC,0.00,WeatherDisplay:10.37,2013-07-26 09:37:00,
2013-07-26 19:42:00,48.6,39.9,29.80,ENE,68,0.0,0.0,72,0.00,CLR,OVC,0.00,WeatherDisplay:10.37,2013-07-26 09:42:00,
2013-07-26 19:47:00,48.6,39.9,29.80,SSW,202,0.0,0.0,72,0.00,CLR,OVC,0.00,WeatherDisplay:10.37,2013-07-26 09:47:00,
2013-07-26 19:52:00,48.4,39.8,29.80,West,270,0.0,0.0,72,0.00,CLR,OVC,0.00,WeatherDisplay:10.37,2013-07-26 09:52:00,
2013-07-26 19:57:00,48.4,39.4,29.80,WSW,248,0.0,0.0,71,0.00,CLR,OVC,0.00,WeatherDisplay:10.37,2013-07-26 09:57:00,
2013-07-26 20:02:00,48.4,39.8,29.80,West,270,0.0,0.0,72,0.00,CLR,OVC,0.00,WeatherDisplay:10.37,2013-07-26 10:02:00,
2013-07-26 20:07:00,48.4,39.8,29.80,WNW,292,0.0,0.0,72,0.00,CLR,OVC,0.00,WeatherDisplay:10.37,2013-07-26 10:07:00,
2013-07-26 20:12:00,48.4,39.8,29.80,West,270,0.0,0.0,72,0.00,CLR,OVC,0.00,WeatherDisplay:10.37,2013-07-26 10:12:00,
2013-07-26 20:17:00,48.2,39.6,29.80,WNW,292,0.0,0.0,72,0.00,CLR,OVC,0.00,WeatherDisplay:10.37,2013-07-26 10:17:00,
2013-07-26 20:22:00,48.0,39.4,29.80,SW,225,0.0,0.0,72,0.00,CLR,OVC,0.00,WeatherDisplay:10.37,2013-07-26 10:22:00,
2013-07-26 20:27:00,48.0,39.8,29.80,West,270,0.0,0.0,73,0.00,CLR,OVC,0.00,WeatherDisplay:10.37,2013-07-26 10:27:00,
2013-07-26 20:32:00,47.8,39.6,29.83,West,270,0.0,0.0,73,0.00,CLR,OVC,0.00,WeatherDisplay:10.37,2013-07-26 10:32:00,
2013-07-26 20:37:00,47.8,39.6,29.83,WNW,292,0.0,0.0,73,0.00,CLR,OVC,0.00,WeatherDisplay:10.37,2013-07-26 10:37:00,
2013-07-26 20:42:00,47.7,39.4,29.83,SE,135,0.0,0.0,73,0.00,CLR,OVC,0.00,WeatherDisplay:10.37,2013-07-26 10:42:00,
2013-07-26 20:47:00,47.5,39.3,29.83,South,180,0.0,0.0,73,0.00,CLR,OVC,0.00,WeatherDisplay:10.37,2013-07-26 10:47:00,
2013-07-26 20:52:00,47.3,38.7,29.83,West,270,0.0,0.0,72,0.00,CLR,OVC,0.00,WeatherDisplay:10.37,2013-07-26 10:52:00,
2013-07-26 20:58:00,47.3,39.1,29.83,SW,225,0.0,0.0,73,0.00,CLR,OVC,0.00,WeatherDisplay:10.37,2013-07-26 10:58:00,
2013-07-26 21:03:00,47.1,38.9,29.83,WSW,248,0.0,0.0,73,0.00,CLR,OVC,0.00,WeatherDisplay:10.37,2013-07-26 11:03:00,
2013-07-26 21:07:00,47.1,38.9,29.83,SSW,202,0.0,0.0,73,0.00,CLR,OVC,0.00,WeatherDisplay:10.37,2013-07-26 11:07:00,
2013-07-26 21:12:00,46.9,38.7,29.83,SW,225,0.0,0.0,73,0.00,CLR,OVC,0.00,WeatherDisplay:10.37,2013-07-26 11:12:00,
2013-07-26 21:17:00,46.8,38.6,29.83,West,270,0.0,0.0,73,0.00,CLR,OVC,0.00,WeatherDisplay:10.37,2013-07-26 11:17:00,
2013-07-26 21:22:00,46.6,38.4,29.83,West,270,0.0,0.0,73,0.00,CLR,OVC,0.00,WeatherDisplay:10.37,2013-07-26 11:22:00,
2013-07-26 21:27:00,46.6,38.4,29.83,South,180,0.0,0.0,73,0.00,CLR,OVC,0.00,WeatherDisplay:10.37,2013-07-26 11:27:00,
2013-07-26 21:32:00,46.4,38.2,29.83,SE,135,0.0,0.0,73,0.00,CLR,OVC,0.00,WeatherDisplay:10.37,2013-07-26 11:32:00,
2013-07-26 21:37:00,46.4,38.6,29.83,East,90,0.0,0.0,74,0.00,CLR,OVC,0.00,WeatherDisplay:10.37,2013-07-26 11:37:00,
2013-07-26 21:43:00,46.2,38.4,29.83,WSW,248,0.0,0.0,74,0.00,CLR,OVC,0.00,WeatherDisplay:10.37,2013-07-26 11:43:00,
2013-07-26 21:47:00,46.0,38.2,29.83,WSW,248,0.0,0.0,74,0.00,CLR,OVC,0.00,WeatherDisplay:10.37,2013-07-26 11:47:00,
2013-07-26 21:52:00,45.9,38.0,29.83,WSW,248,0.0,0.0,74,0.00,CLR,OVC,0.00,WeatherDisplay:10.37,2013-07-26 11:52:00,
2013-07-26 21:58:00,45.9,38.0,29.83,SW,225,0.0,0.0,74,0.00,CLR,OVC,0.00,WeatherDisplay:10.37,2013-07-26 11:58:00,
2013-07-26 22:03:00,45.9,38.0,29.83,WSW,248,0.0,0.0,74,0.00,CLR,OVC,0.00,WeatherDisplay:10.37,2013-07-26 12:03:00,
2013-07-26 22:08:00,45.9,38.0,29.83,SSW,202,0.0,0.0,74,0.00,CLR,OVC,0.00,WeatherDisplay:10.37,2013-07-26 12:08:00,
2013-07-26 22:13:00,45.9,38.0,29.83,WSW,248,0.0,0.0,74,0.00,CLR,OVC,0.00,WeatherDisplay:10.37,2013-07-26 12:13:00,
2013-07-26 22:18:00,45.9,38.0,29.83,SE,135,0.0,0.0,74,0.00,CLR,OVC,0.00,WeatherDisplay:10.37,2013-07-26 12:18:00,
2013-07-26 22:23:00,45.9,38.4,29.83,SE,135,0.0,0.0,75,0.00,CLR,OVC,0.00,WeatherDisplay:10.37,2013-07-26 12:23:00,
2013-07-26 22:28:00,45.9,38.0,29.83,SE,135,0.0,0.0,74,0.00,CLR,OVC,0.00,WeatherDisplay:10.37,2013-07-26 12:28:00,
2013-07-26 22:33:00,45.9,38.0,29.85,ESE,112,0.0,0.0,74,0.00,CLR,OVC,0.00,WeatherDisplay:10.37,2013-07-26 12:33:00,
2013-07-26 22:38:00,45.7,37.9,29.85,SSE,158,0.0,0.0,74,0.00,CLR,OVC,0.00,WeatherDisplay:10.37,2013-07-26 12:38:00,
2013-07-26 22:43:00,45.7,37.9,29.85,SE,135,0.0,0.0,74,0.00,CLR,OVC,0.00,WeatherDisplay:10.37,2013-07-26 12:43:00,
2013-07-26 22:48:00,45.5,37.7,29.85,SE,135,0.0,0.0,74,0.00,CLR,OVC,0.00,WeatherDisplay:10.37,2013-07-26 12:48:00,
2013-07-26 22:53:00,45.5,37.7,29.85,SE,135,0.0,0.0,74,0.00,CLR,OVC,0.00,WeatherDisplay:10.37,2013-07-26 12:53:00,
2013-07-26 22:58:00,45.3,37.2,29.85,SW,225,0.0,0.0,73,0.00,CLR,OVC,0.00,WeatherDisplay:10.37,2013-07-26 12:58:00,
2013-07-26 23:03:00,45.3,37.5,29.85,WNW,292,0.0,0.0,74,0.00,CLR,OVC,0.00,WeatherDisplay:10.37,2013-07-26 13:03:00,
2013-07-26 23:08:00,45.1,37.0,29.85,WNW,292,3.5,3.5,73,0.00,CLR,OVC,0.00,WeatherDisplay:10.37,2013-07-26 13:08:00,
2013-07-26 23:13:00,44.8,36.7,29.85,West,270,0.0,0.0,73,0.00,CLR,OVC,0.00,WeatherDisplay:10.37,2013-07-26 13:13:00,
2013-07-26 23:18:00,44.6,36.8,29.85,SSW,202,0.0,0.0,74,0.00,CLR,OVC,0.00,WeatherDisplay:10.37,2013-07-26 13:18:00,
2013-07-26 23:23:00,44.6,36.8,29.85,WSW,248,2.3,2.3,74,0.00,CLR,OVC,0.00,WeatherDisplay:10.37,2013-07-26 13:23:00,
2013-07-26 23:28:00,44.6,36.8,29.85,West,270,2.3,2.3,74,0.00,CLR,OVC,0.00,WeatherDisplay:10.37,2013-07-26 13:28:00,
2013-07-26 23:33:00,44.6,37.2,29.85,NW,315,0.0,0.0,75,0.00,CLR,OVC,0.00,WeatherDisplay:10.37,2013-07-26 13:33:00,
2013-07-26 23:38:00,44.6,37.2,29.85,SSW,202,0.0,0.0,75,0.00,CLR,OVC,0.00,WeatherDisplay:10.37,2013-07-26 13:38:00,
2013-07-26 23:43:00,44.4,37.0,29.85,South,180,0.0,0.0,75,0.00,CLR,OVC,0.00,WeatherDisplay:10.37,2013-07-26 13:43:00,
2013-07-26 23:48:00,44.4,37.0,29.85,ENE,68,0.0,0.0,75,0.00,CLR,OVC,0.00,WeatherDisplay:10.37,2013-07-26 13:48:00,
2013-07-26 23:53:00,44.1,36.6,29.85,ENE,68,0.0,0.0,75,0.00,CLR,OVC,0.00,WeatherDisplay:10.37,2013-07-26 13:53:00,
2013-07-26 23:58:00,43.9,36.5,29.85,ENE,68,0.0,0.0,75,0.00,CLR,OVC,0.00,WeatherDisplay:10.37,2013-07-26 13:58:00,